Time;durP1;ratioP1;P1;durP2;ratioP2;P2;SDS_P1;SDS_P2;PMS_P1;PMS_P2;Temp;Humidity;BMP_temperature;BMP_pressure;BME280_temperature;BME280_humidity;BME280_pressure;Samples;Min_cycle;Max_cycle;Signal;HPM_P1;HPM_P2
2021/06/10 00:00:41;;;;;;;10.90;6.22;;;12.80;99.90;;;;;;4181894;28;20025;-75
2021/06/10 00:02:42;;;;;;;10.10;6.72;;;12.70;99.90;;;;;;4181756;28;20433;-75
2021/06/10 00:04:43;;;;;;;8.93;5.80;;;12.70;99.90;;;;;;4181661;28;20029;-75
2021/06/10 00:06:44;;;;;;;7.40;6.45;;;12.60;99.90;;;;;;4181608;28;20115;-75
2021/06/10 00:08:44;;;;;;;9.43;6.55;;;12.60;99.90;;;;;;4180393;28;20033;-75
2021/06/10 00:10:46;;;;;;;15.30;7.53;;;12.60;99.90;;;;;;4180575;28;20045;-75
2021/06/10 00:12:48;;;;;;;11.18;7.00;;;12.60;99.90;;;;;;4180745;28;20060;-75
2021/06/10 00:14:49;;;;;;;7.95;6.65;;;12.50;99.90;;;;;;4180810;28;20166;-75
2021/06/10 00:16:50;;;;;;;11.50;6.85;;;12.50;99.90;;;;;;4180692;28;20029;-75
2021/06/10 00:18:52;;;;;;;7.15;6.45;;;12.50;99.90;;;;;;4180742;28;20032;-75
2021/06/10 00:20:52;;;;;;;10.60;6.85;;;12.50;99.90;;;;;;4186340;28;20036;-75
2021/06/10 00:22:55;;;;;;;10.73;8.07;;;12.50;99.90;;;;;;4174808;28;20523;-76
2021/06/10 00:24:55;;;;;;;11.80;8.02;;;12.50;99.90;;;;;;4179698;28;20041;-75
2021/06/10 00:26:56;;;;;;;9.95;7.15;;;12.50;99.90;;;;;;4180252;28;20033;-76
2021/06/10 00:28:57;;;;;;;12.18;7.55;;;12.50;99.90;;;;;;4180584;28;20453;-75
2021/06/10 00:30:59;;;;;;;8.57;7.65;;;12.40;99.90;;;;;;4173229;28;20033;-76
2021/06/10 00:33:01;;;;;;;10.20;7.57;;;12.40;99.90;;;;;;4180975;28;20120;-75
2021/06/10 00:35:02;;;;;;;9.45;7.60;;;12.30;99.90;;;;;;4180234;28;20024;-75
2021/06/10 00:37:02;;;;;;;8.13;7.22;;;12.30;99.90;;;;;;4179808;28;20021;-75
2021/06/10 00:39:04;;;;;;;8.43;7.57;;;12.30;99.90;;;;;;4179866;28;20053;-75
2021/06/10 00:41:04;;;;;;;11.85;8.07;;;12.20;99.90;;;;;;4180750;28;20551;-75
2021/06/10 00:43:05;;;;;;;12.48;9.38;;;12.20;99.90;;;;;;4179798;28;20128;-75
2021/06/10 00:45:08;;;;;;;8.20;7.40;;;12.20;99.90;;;;;;4196339;28;20040;-75
2021/06/10 00:47:09;;;;;;;12.15;7.55;;;12.20;99.90;;;;;;4196537;28;20029;-75
2021/06/10 00:49:09;;;;;;;9.98;7.95;;;12.10;99.90;;;;;;4180801;28;20037;-75
2021/06/10 00:51:10;;;;;;;11.20;8.65;;;12.10;99.90;;;;;;4195942;28;20462;-75
2021/06/10 00:53:21;;;;;;;10.40;7.90;;;12.00;99.90;;;;;;4181288;28;20029;-75
2021/06/10 00:55:24;;;;;;;9.77;8.55;;;12.10;99.90;;;;;;4181029;28;20365;-76
2021/06/10 00:57:26;;;;;;;11.38;8.25;;;12.00;99.90;;;;;;4181293;28;20029;-75
2021/06/10 00:59:26;;;;;;;9.35;8.50;;;12.00;99.90;;;;;;4181223;28;20045;-76
2021/06/10 01:01:27;;;;;;;8.77;7.60;;;11.90;99.90;;;;;;4181005;28;20147;-76
2021/06/10 01:03:28;;;;;;;9.68;8.48;;;11.90;99.90;;;;;;4179614;28;20376;-76
2021/06/10 01:05:29;;;;;;;10.60;8.30;;;11.80;99.90;;;;;;4196200;28;20036;-76
2021/06/10 01:07:45;;;;;;;8.65;7.85;;;11.80;99.90;;;;;;4181233;28;20037;-77
2021/06/10 01:09:51;;;;;;;9.35;8.45;;;11.80;99.90;;;;;;4180913;28;20052;-76
2021/06/10 01:12:22;;;;;;;12.32;9.77;;;11.80;99.90;;;;;;4196100;28;20036;-77
2021/06/10 01:14:49;;;;;;;10.40;8.77;;;11.80;99.90;;;;;;4179041;28;20115;-76
2021/06/10 01:16:51;;;;;;;9.30;8.35;;;11.90;99.90;;;;;;4181826;28;20523;-76
2021/06/10 01:18:54;;;;;;;13.83;9.23;;;11.90;99.90;;;;;;4180933;28;20021;-77
2021/06/10 01:20:56;;;;;;;12.68;9.48;;;11.90;99.90;;;;;;4181004;28;20355;-76
2021/06/10 01:22:57;;;;;;;13.18;9.50;;;11.90;99.90;;;;;;4187862;28;20057;-76
2021/06/10 01:25:06;;;;;;;10.00;8.82;;;11.90;99.90;;;;;;4180357;28;20032;-76
2021/06/10 01:27:26;;;;;;;10.10;9.00;;;11.90;99.90;;;;;;4178545;28;20033;-76
2021/06/10 01:29:28;;;;;;;10.07;8.80;;;11.90;99.90;;;;;;4180739;28;20026;-77
2021/06/10 01:31:30;;;;;;;11.63;8.75;;;11.90;99.90;;;;;;4180315;28;20037;-76
2021/06/10 01:33:43;;;;;;;10.70;9.65;;;11.80;99.90;;;;;;4179929;28;20368;-76
2021/06/10 01:36:03;;;;;;;13.23;9.48;;;11.80;99.90;;;;;;4164372;28;20056;-76
2021/06/10 01:38:06;;;;;;;17.08;9.43;;;11.70;99.90;;;;;;4179403;28;20039;-77
2021/06/10 01:40:08;;;;;;;13.68;8.80;;;11.70;99.90;;;;;;4178855;28;20377;-77
2021/06/10 01:42:11;;;;;;;13.85;9.27;;;11.70;99.90;;;;;;4179351;28;20049;-76
2021/06/10 01:44:13;;;;;;;14.13;9.88;;;11.60;99.90;;;;;;4179319;28;20396;-76
2021/06/10 01:46:16;;;;;;;12.88;10.98;;;11.60;99.90;;;;;;4179703;28;20100;-76
2021/06/10 01:48:19;;;;;;;13.82;10.15;;;11.60;99.90;;;;;;4179317;28;20390;-76
2021/06/10 01:50:21;;;;;;;11.85;9.80;;;11.60;99.90;;;;;;4179255;28;20056;-76
2021/06/10 01:52:23;;;;;;;15.25;10.70;;;11.60;99.90;;;;;;4194066;28;20064;-76
2021/06/10 01:54:25;;;;;;;14.77;11.35;;;11.60;99.90;;;;;;4177443;28;20029;-76
2021/06/10 01:56:28;;;;;;;13.40;11.40;;;11.50;99.90;;;;;;4178804;28;20029;-77
2021/06/10 01:58:29;;;;;;;13.10;10.38;;;11.50;99.90;;;;;;4193633;28;20095;-76
2021/06/10 02:00:31;;;;;;;13.63;11.30;;;11.50;99.90;;;;;;4179254;28;20033;-76
2021/06/10 02:02:33;;;;;;;13.95;12.55;;;11.50;99.90;;;;;;4178931;28;20025;-77
2021/06/10 02:04:34;;;;;;;16.35;11.48;;;11.50;99.90;;;;;;4194015;28;20629;-77
2021/06/10 02:06:38;;;;;;;17.08;12.07;;;11.50;99.90;;;;;;4177292;28;20550;-77
2021/06/10 02:08:40;;;;;;;14.98;12.27;;;11.50;99.90;;;;;;4179078;28;20026;-76
2021/06/10 02:10:44;;;;;;;12.63;11.25;;;11.50;99.90;;;;;;4178985;28;20045;-76
2021/06/10 02:12:45;;;;;;;15.20;13.05;;;11.40;99.90;;;;;;4194137;28;20627;-76
2021/06/10 02:14:46;;;;;;;16.75;12.20;;;11.40;99.90;;;;;;4178542;28;20029;-76
2021/06/10 02:16:49;;;;;;;16.50;12.80;;;11.40;99.90;;;;;;4178559;28;20651;-76
2021/06/10 02:18:51;;;;;;;15.27;13.27;;;11.40;99.90;;;;;;4193514;28;20025;-77
2021/06/10 02:20:51;;;;;;;17.73;12.27;;;11.40;99.90;;;;;;4178682;28;20029;-77
2021/06/10 02:22:53;;;;;;;13.23;11.82;;;11.40;99.90;;;;;;4177644;28;20522;-76
2021/06/10 02:24:54;;;;;;;18.73;13.50;;;11.30;99.90;;;;;;4178242;28;20029;-76
2021/06/10 02:26:54;;;;;;;16.67;14.00;;;11.30;99.90;;;;;;4179542;28;20028;-76
2021/06/10 02:28:55;;;;;;;15.00;13.45;;;11.30;99.90;;;;;;4177665;28;20025;-76
2021/06/10 02:30:56;;;;;;;16.50;13.40;;;11.30;99.90;;;;;;4179429;28;20540;-76
2021/06/10 02:32:57;;;;;;;19.23;14.13;;;11.20;99.90;;;;;;4179823;28;20029;-76
2021/06/10 02:34:57;;;;;;;19.50;15.35;;;11.20;99.90;;;;;;4179506;28;20415;-76
2021/06/10 02:37:00;;;;;;;22.02;16.10;;;11.20;99.90;;;;;;4177845;28;20049;-76
2021/06/10 02:39:05;;;;;;;15.95;14.25;;;11.20;99.90;;;;;;4179248;28;20125;-77
2021/06/10 02:41:07;;;;;;;17.85;14.52;;;11.20;99.90;;;;;;4194194;28;20032;-76
2021/06/10 02:43:09;;;;;;;24.33;15.45;;;11.20;99.90;;;;;;4179749;28;20182;-75
2021/06/10 02:45:11;;;;;;;17.92;14.88;;;11.20;99.90;;;;;;4178193;28;20679;-77
2021/06/10 02:47:13;;;;;;;20.20;16.52;;;11.30;99.90;;;;;;4177886;28;20439;-77
2021/06/10 02:49:18;;;;;;;20.55;15.95;;;11.20;99.90;;;;;;4178363;28;20036;-76
2021/06/10 02:51:20;;;;;;;22.45;16.17;;;11.20;99.90;;;;;;4194503;28;20377;-77
2021/06/10 02:53:22;;;;;;;22.10;15.68;;;11.20;99.90;;;;;;4187660;28;26974;-77
2021/06/10 02:55:24;;;;;;;23.80;15.88;;;11.20;99.90;;;;;;4179244;28;20098;-77
2021/06/10 02:57:26;;;;;;;18.83;15.88;;;11.10;99.90;;;;;;4177562;28;20033;-77
2021/06/10 02:59:28;;;;;;;16.80;14.50;;;11.10;99.90;;;;;;4178960;28;20044;-77
2021/06/10 03:01:38;;;;;;;23.17;15.52;;;11.10;99.90;;;;;;4179381;28;20025;-77
2021/06/10 03:03:41;;;;;;;20.48;16.70;;;11.10;99.90;;;;;;4178155;28;20112;-77
2021/06/10 03:05:44;;;;;;;18.80;16.45;;;11.10;99.90;;;;;;4178553;28;20087;-77
2021/06/10 03:07:45;;;;;;;19.00;16.38;;;11.10;99.90;;;;;;4178278;28;20435;-76
2021/06/10 03:09:48;;;;;;;17.98;16.10;;;11.10;99.90;;;;;;4193588;28;20042;-77
2021/06/10 03:11:50;;;;;;;18.33;16.42;;;11.00;99.90;;;;;;4177937;28;20057;-77
2021/06/10 03:13:51;;;;;;;21.63;16.70;;;11.00;99.90;;;;;;4194043;28;20119;-77
2021/06/10 03:15:53;;;;;;;25.13;17.20;;;11.00;99.90;;;;;;4177050;28;20029;-77
2021/06/10 03:17:54;;;;;;;17.05;15.25;;;11.00;99.90;;;;;;4178232;28;20091;-77
2021/06/10 03:19:55;;;;;;;19.77;16.40;;;11.00;99.90;;;;;;4178623;28;20033;-77
2021/06/10 03:21:56;;;;;;;18.65;15.15;;;11.00;99.90;;;;;;4193713;28;20682;-75
2021/06/10 03:23:57;;;;;;;22.13;16.48;;;11.00;99.90;;;;;;4176713;28;20044;-75
2021/06/10 03:26:03;;;;;;;17.23;15.38;;;11.10;99.90;;;;;;4178182;28;20048;-76
2021/06/10 03:28:05;;;;;;;33.15;17.35;;;11.00;99.90;;;;;;4176277;28;20032;-76
2021/06/10 03:30:07;;;;;;;28.02;18.83;;;11.00;99.90;;;;;;4177776;28;20033;-75
2021/06/10 03:32:09;;;;;;;18.23;15.95;;;11.10;99.90;;;;;;4177953;28;20021;-77
2021/06/10 03:34:10;;;;;;;21.50;17.35;;;11.10;99.90;;;;;;4178591;28;20468;-77
2021/06/10 03:36:12;;;;;;;28.10;18.02;;;11.10;99.90;;;;;;4177877;28;20024;-76
2021/06/10 03:38:13;;;;;;;23.75;18.25;;;11.10;99.90;;;;;;4177941;28;20034;-75
2021/06/10 03:40:16;;;;;;;20.40;16.10;;;11.10;99.90;;;;;;4178769;28;20041;-76
2021/06/10 03:42:18;;;;;;;21.25;17.85;;;11.10;99.90;;;;;;4194647;28;20451;-76
2021/06/10 03:44:19;;;;;;;29.77;19.27;;;11.20;99.90;;;;;;4194347;28;20045;-77
2021/06/10 03:46:20;;;;;;;21.15;17.55;;;11.30;99.90;;;;;;4178329;28;20025;-76
2021/06/10 03:48:21;;;;;;;20.17;16.63;;;11.30;99.90;;;;;;4194072;28;20095;-76
2021/06/10 03:50:24;;;;;;;23.73;17.70;;;11.30;99.90;;;;;;4178069;28;20068;-76
2021/06/10 03:52:26;;;;;;;21.15;18.48;;;11.30;99.90;;;;;;4177590;28;20044;-76
2021/06/10 03:54:27;;;;;;;26.00;17.60;;;11.30;99.90;;;;;;4179044;28;20388;-75
2021/06/10 03:56:28;;;;;;;18.17;15.45;;;11.30;99.90;;;;;;4179047;28;20045;-76
2021/06/10 03:58:29;;;;;;;19.10;16.73;;;11.30;99.90;;;;;;4177588;28;20092;-76
2021/06/10 04:00:30;;;;;;;20.98;17.70;;;11.30;99.90;;;;;;4181097;28;20029;-76
2021/06/10 04:02:30;;;;;;;19.40;16.60;;;11.40;99.90;;;;;;4180666;28;20029;-75
2021/06/10 04:04:31;;;;;;;22.27;17.40;;;11.40;99.90;;;;;;4180521;28;20040;-76
2021/06/10 04:06:34;;;;;;;24.42;20.05;;;11.40;99.90;;;;;;4181813;28;20024;-75
2021/06/10 04:08:35;;;;;;;;;;;11.50;99.90;;;;;;4182738;28;20040;-75
2021/06/10 04:10:38;;;;;;;23.50;17.60;;;11.60;99.90;;;;;;4197319;28;19920;-76
2021/06/10 04:12:38;;;;;;;20.92;16.63;;;11.60;99.90;;;;;;4181958;28;20048;-76
2021/06/10 04:14:39;;;;;;;20.80;16.15;;;11.60;99.90;;;;;;4197377;28;20033;-77
2021/06/10 04:16:39;;;;;;;24.90;17.48;;;11.60;99.90;;;;;;4182264;28;20040;-77
2021/06/10 04:18:40;;;;;;;20.30;16.90;;;11.60;99.90;;;;;;4181929;28;20622;-78
2021/06/10 04:20:42;;;;;;;19.38;17.27;;;11.60;99.90;;;;;;4181677;28;20055;-77
2021/06/10 04:22:42;;;;;;;23.70;19.05;;;11.60;99.90;;;;;;4186554;28;20056;-75
2021/06/10 04:24:43;;;;;;;17.27;15.43;;;11.70;99.90;;;;;;4180408;28;20543;-77
2021/06/10 04:26:44;;;;;;;19.00;17.00;;;11.80;99.90;;;;;;4181542;28;20384;-76
2021/06/10 04:28:45;;;;;;;18.48;16.48;;;11.70;99.90;;;;;;4180184;28;20116;-76
2021/06/10 04:30:46;;;;;;;20.30;17.90;;;11.80;99.90;;;;;;4179703;28;20037;-76
2021/06/10 04:32:46;;;;;;;19.63;15.52;;;11.90;99.90;;;;;;4181589;28;20488;-76
2021/06/10 04:34:47;;;;;;;18.17;15.68;;;11.90;99.90;;;;;;4181492;28;20562;-76
2021/06/10 04:36:48;;;;;;;20.00;16.17;;;12.00;99.90;;;;;;4180115;28;20037;-76
2021/06/10 04:38:51;;;;;;;23.67;17.48;;;12.00;99.90;;;;;;4179787;28;20033;-76
2021/06/10 04:40:52;;;;;;;23.80;17.25;;;12.10;99.90;;;;;;4181116;28;20075;-77
2021/06/10 04:42:53;;;;;;;22.67;18.02;;;12.20;99.90;;;;;;4181667;28;20021;-77
2021/06/10 04:44:53;;;;;;;20.85;17.60;;;12.40;99.90;;;;;;4179744;28;20429;-76
2021/06/10 04:46:54;;;;;;;20.75;16.73;;;12.50;99.90;;;;;;4181304;28;20041;-77
2021/06/10 04:48:56;;;;;;;20.30;16.73;;;12.70;99.90;;;;;;4181411;28;20037;-77
2021/06/10 04:50:57;;;;;;;25.60;17.85;;;12.80;99.90;;;;;;4195924;28;20090;-77
2021/06/10 04:52:58;;;;;;;19.40;15.25;;;12.90;99.90;;;;;;4179757;28;20033;-77
2021/06/10 04:54:58;;;;;;;19.95;16.52;;;13.00;99.90;;;;;;4180890;28;20032;-77
2021/06/10 04:56:59;;;;;;;21.98;17.55;;;13.10;99.90;;;;;;4181048;28;20419;-77
2021/06/10 04:59:00;;;;;;;20.33;16.85;;;13.10;99.90;;;;;;4179671;28;20044;-77
2021/06/10 05:01:00;;;;;;;24.77;16.88;;;13.20;99.90;;;;;;4196497;28;20482;-77
2021/06/10 05:03:01;;;;;;;22.35;17.38;;;13.20;99.90;;;;;;4180531;28;20037;-77
2021/06/10 05:05:02;;;;;;;24.83;16.85;;;13.30;99.90;;;;;;4196448;28;20024;-76
2021/06/10 05:07:03;;;;;;;22.45;17.55;;;13.40;99.90;;;;;;4195691;28;20028;-76
2021/06/10 05:09:04;;;;;;;19.35;16.02;;;13.50;99.90;;;;;;4180009;28;20433;-76
2021/06/10 05:11:05;;;;;;;21.35;15.93;;;13.60;99.90;;;;;;4180627;28;20036;-77
2021/06/10 05:13:06;;;;;;;20.88;17.00;;;13.70;99.90;;;;;;4180830;28;20036;-77
2021/06/10 05:15:07;;;;;;;21.38;16.00;;;13.80;99.90;;;;;;4180730;28;20021;-76
2021/06/10 05:17:09;;;;;;;20.48;17.88;;;13.80;99.90;;;;;;4180650;28;20039;-76
2021/06/10 05:19:10;;;;;;;17.55;15.75;;;13.90;99.90;;;;;;4181028;28;20025;-76
2021/06/10 05:21:11;;;;;;;19.65;15.98;;;14.00;99.90;;;;;;4181090;28;20493;-76
2021/06/10 05:23:12;;;;;;;26.80;19.33;;;14.10;99.90;;;;;;4185305;28;20500;-77
2021/06/10 05:25:13;;;;;;;21.80;18.50;;;14.20;99.90;;;;;;4179644;28;20151;-76
2021/06/10 05:27:14;;;;;;;32.05;21.10;;;14.40;99.90;;;;;;4181061;28;20029;-76
2021/06/10 05:29:14;;;;;;;25.70;19.20;;;14.60;99.90;;;;;;4180443;28;20025;-76
2021/06/10 05:31:15;;;;;;;33.00;20.52;;;14.70;99.90;;;;;;4180362;28;20040;-76
2021/06/10 05:33:16;;;;;;;22.92;18.77;;;14.80;99.90;;;;;;4190875;28;20491;-76
2021/06/10 05:35:17;;;;;;;33.72;20.13;;;14.90;99.90;;;;;;4179438;28;20033;-76
2021/06/10 05:37:18;;;;;;;30.45;21.15;;;15.00;99.90;;;;;;4178008;28;20029;-76
2021/06/10 05:39:18;;;;;;;24.08;19.60;;;15.10;99.90;;;;;;4177718;28;20052;-76
2021/06/10 05:41:19;;;;;;;26.30;20.30;;;15.20;99.90;;;;;;4179428;28;20025;-77
2021/06/10 05:43:22;;;;;;;28.92;20.75;;;15.30;99.90;;;;;;4177917;28;20029;-77
2021/06/10 05:45:23;;;;;;;24.27;18.77;;;15.50;99.90;;;;;;4179543;28;20480;-76
2021/06/10 05:47:24;;;;;;;28.05;20.90;;;15.60;99.90;;;;;;4179263;28;20048;-76
2021/06/10 05:49:24;;;;;;;25.23;20.23;;;15.70;99.90;;;;;;4179032;28;20115;-77
2021/06/10 05:51:25;;;;;;;22.05;19.60;;;15.90;99.90;;;;;;4179232;28;20033;-76
2021/06/10 05:53:25;;;;;;;20.80;18.52;;;16.00;99.90;;;;;;4179000;28;20067;-77
2021/06/10 05:55:26;;;;;;;23.65;19.63;;;16.20;99.90;;;;;;4175397;28;20041;-76
2021/06/10 05:57:27;;;;;;;23.92;19.13;;;16.30;99.90;;;;;;4177873;28;20519;-77
2021/06/10 05:59:28;;;;;;;22.00;19.27;;;16.40;99.90;;;;;;4176875;28;20067;-77
2021/06/10 06:01:28;;;;;;;20.45;18.45;;;16.60;99.90;;;;;;4171897;28;20033;-76
2021/06/10 06:03:30;;;;;;;21.80;19.20;;;16.80;99.90;;;;;;4178763;28;20112;-76
2021/06/10 06:05:32;;;;;;;20.50;16.83;;;16.70;99.90;;;;;;4180087;28;20037;-78
2021/06/10 06:07:33;;;;;;;20.52;17.70;;;16.90;99.90;;;;;;4180162;28;20033;-78
2021/06/10 06:09:37;;;;;;;23.48;18.65;;;17.00;99.90;;;;;;4176471;28;20025;-77
2021/06/10 06:11:40;;;;;;;20.38;17.77;;;;;;;;;;4178310;28;20075;-77
2021/06/10 06:14:06;;;;;;;21.95;17.27;;;17.30;99.90;;;;;;4180300;28;20036;-77
2021/06/10 06:16:06;;;;;;;23.30;17.30;;;17.40;99.90;;;;;;4178225;28;20045;-78
2021/06/10 06:18:08;;;;;;;16.17;14.57;;;17.20;99.90;;;;;;4180013;28;20059;-78
2021/06/10 06:20:10;;;;;;;21.05;15.18;;;17.70;99.90;;;;;;4179710;28;20052;-76
2021/06/10 06:22:11;;;;;;;15.80;14.25;;;17.80;99.90;;;;;;4179716;28;20492;-76
2021/06/10 06:24:12;;;;;;;15.52;13.93;;;17.90;99.90;;;;;;4179005;28;20119;-76
2021/06/10 06:26:13;;;;;;;16.50;14.73;;;18.00;99.90;;;;;;4179122;28;20380;-82
2021/06/10 06:28:14;;;;;;;18.85;15.82;;;18.10;99.90;;;;;;4178489;28;20032;-79
2021/06/10 06:30:15;;;;;;;16.20;12.88;;;18.20;99.90;;;;;;4211696;28;20028;-79
2021/06/10 06:32:16;;;;;;;18.00;14.82;;;18.20;99.90;;;;;;4180383;28;20116;-79
2021/06/10 06:34:18;;;;;;;14.45;12.98;;;18.30;99.90;;;;;;4178530;28;20083;-77
2021/06/10 06:36:20;;;;;;;16.55;12.57;;;18.50;99.90;;;;;;4177856;28;20021;-77
2021/06/10 06:38:21;;;;;;;15.27;13.68;;;18.60;99.90;;;;;;4175602;28;20037;-77
2021/06/10 06:40:26;;;;;;;14.27;12.77;;;18.70;99.90;;;;;;4177169;28;20158;-79
2021/06/10 06:42:27;;;;;;;17.83;13.55;;;18.80;99.90;;;;;;4158036;28;20037;-79
2021/06/10 06:44:28;;;;;;;11.95;10.20;;;18.80;99.90;;;;;;4185564;28;20040;-78
2021/06/10 06:46:29;;;;;;;15.80;13.05;;;18.90;99.90;;;;;;4178010;28;20037;-79
2021/06/10 06:48:30;;;;;;;13.07;10.90;;;19.00;99.90;;;;;;4177953;28;20040;-80
2021/06/10 06:50:31;;;;;;;10.30;9.30;;;19.10;99.90;;;;;;4178961;28;20501;-79
2021/06/10 06:52:32;;;;;;;13.27;9.23;;;19.20;99.90;;;;;;4177869;28;20036;-79
2021/06/10 06:54:32;;;;;;;10.15;9.15;;;19.30;99.90;;;;;;4178476;28;20040;-80
2021/06/10 06:56:33;;;;;;;13.55;8.25;;;19.40;99.90;;;;;;4178645;28;20064;-78
2021/06/10 06:58:33;;;;;;;10.30;9.27;;;19.40;99.90;;;;;;4177862;28;20469;-79
2021/06/10 07:00:34;;;;;;;11.48;10.27;;;19.50;99.90;;;;;;4178349;28;20060;-80
2021/06/10 07:02:35;;;;;;;9.77;8.23;;;19.60;99.90;;;;;;4178617;28;20629;-80
2021/06/10 07:04:36;;;;;;;9.63;8.52;;;19.70;99.90;;;;;;4161921;28;20037;-79
2021/06/10 07:06:38;;;;;;;10.50;8.73;;;19.70;99.90;;;;;;4179858;28;20033;-80
2021/06/10 07:08:39;;;;;;;11.23;9.13;;;19.80;99.90;;;;;;4177899;28;20041;-79
2021/06/10 07:10:41;;;;;;;10.77;8.65;;;20.00;99.90;;;;;;4178003;28;20194;-79
2021/06/10 07:12:42;;;;;;;10.35;9.23;;;20.10;99.90;;;;;;4211745;28;20456;-79
2021/06/10 07:14:43;;;;;;;12.80;8.77;;;20.20;99.90;;;;;;4179484;28;20041;-79
2021/06/10 07:16:44;;;;;;;14.45;11.88;;;20.30;99.90;;;;;;4179288;28;20029;-82
2021/06/10 07:18:44;;;;;;;12.55;11.13;;;20.30;99.90;;;;;;4178110;28;20040;-79
2021/06/10 07:20:45;;;;;;;13.60;11.68;;;20.50;99.90;;;;;;4178357;28;20059;-79
2021/06/10 07:22:46;;;;;;;8.18;6.22;;;20.60;99.90;;;;;;4166895;28;20068;-79
2021/06/10 07:24:48;;;;;;;5.90;5.30;;;20.70;99.90;;;;;;4177783;28;20037;-79
2021/06/10 07:26:48;;;;;;;5.63;4.70;;;20.90;99.90;;;;;;4179266;28;20083;-79
2021/06/10 07:28:50;;;;;;;7.47;4.65;;;21.00;99.90;;;;;;4179331;28;20033;-79
2021/06/10 07:30:51;;;;;;;8.50;4.53;;;21.20;99.90;;;;;;4177792;28;20037;-79
2021/06/10 07:32:52;;;;;;;4.45;3.90;;;21.40;99.90;;;;;;4177899;28;20159;-80
2021/06/10 07:34:53;;;;;;;3.88;3.47;;;21.40;99.90;;;;;;4182069;28;20444;-80
2021/06/10 07:36:53;;;;;;;5.43;3.22;;;21.50;99.90;;;;;;4181265;28;20056;-80
2021/06/10 07:38:54;;;;;;;4.45;2.83;;;21.80;99.90;;;;;;4182689;28;20025;-80
2021/06/10 07:40:55;;;;;;;4.47;3.15;;;21.90;99.90;;;;;;4182503;28;20033;-80
2021/06/10 07:42:57;;;;;;;5.43;3.90;;;22.00;99.90;;;;;;4197646;28;20020;-80
2021/06/10 07:44:57;;;;;;;4.75;3.58;;;22.20;99.90;;;;;;4197814;28;20033;-80
2021/06/10 07:46:58;;;;;;;5.00;3.63;;;22.50;99.90;;;;;;4181029;28;20047;-77
2021/06/10 07:48:59;;;;;;;6.28;2.90;;;22.70;99.90;;;;;;4197591;28;20050;-80
2021/06/10 07:51:04;;;;;;;3.38;2.70;;;22.70;99.90;;;;;;4180731;28;20041;-79
2021/06/10 07:53:05;;;;;;;3.50;3.20;;;;;;;;;;4182147;28;20036;-79
2021/06/10 07:55:07;;;;;;;3.05;2.75;;;;;;;;;;4182675;28;20025;-79
2021/06/10 07:57:09;;;;;;;4.68;4.15;;;;;;;;;;4197220;28;20043;-79
2021/06/10 07:59:12;;;;;;;4.63;4.13;;;;;;;;;;4181271;28;20033;-79
2021/06/10 08:01:14;;;;;;;3.53;3.22;;;;;;;;;;4182605;28;20044;-80
2021/06/10 08:03:16;;;;;;;4.65;3.78;;;;;;;;;;4197430;28;20035;-79
2021/06/10 08:05:17;;;;;;;6.22;3.25;;;;;;;;;;4197261;28;20032;-79
2021/06/10 08:07:18;;;;;;;7.70;3.85;;;;;;;;;;4180938;28;20029;-80
2021/06/10 08:09:20;;;;;;;5.07;4.60;;;;;;;;;;4180848;28;20033;-81
2021/06/10 08:11:21;;;;;;;7.35;5.65;;;;;;;;;;4182034;28;20041;-80
2021/06/10 08:13:24;;;;;;;5.72;5.18;;;;;;;;;;4193799;28;20067;-80
2021/06/10 08:15:27;;;;;;;6.20;4.90;;;23.70;99.90;;;;;;4180558;28;20484;-80
2021/06/10 08:17:29;;;;;;;8.63;5.35;;;24.00;99.90;;;;;;4182083;28;20048;-80
2021/06/10 08:19:32;;;;;;;6.35;5.10;;;23.90;99.90;;;;;;4180262;28;20040;-78
2021/06/10 08:21:33;;;;;;;6.45;5.85;;;23.90;99.90;;;;;;4182168;28;20045;-79
2021/06/10 08:23:33;;;;;;;5.95;5.13;;;24.00;99.90;;;;;;4186977;28;20032;-78
2021/06/10 08:25:34;;;;;;;7.65;6.85;;;24.20;99.90;;;;;;4176827;28;20033;-79
2021/06/10 08:27:36;;;;;;;8.77;6.82;;;24.20;99.90;;;;;;4180559;28;20033;-79
2021/06/10 08:29:36;;;;;;;10.18;6.85;;;24.20;99.90;;;;;;4180304;28;20508;-79
2021/06/10 08:31:38;;;;;;;7.40;6.60;;;24.50;99.90;;;;;;4182628;28;20029;-79
2021/06/10 08:33:40;;;;;;;7.70;6.68;;;24.50;99.90;;;;;;4180485;28;20048;-79
2021/06/10 08:35:41;;;;;;;9.15;7.68;;;;;;;;;;4181723;28;20052;-79
2021/06/10 08:37:42;;;;;;;9.48;7.65;;;25.00;99.90;;;;;;4209566;28;20429;-79
2021/06/10 08:39:43;;;;;;;9.77;7.88;;;24.70;99.90;;;;;;4173529;28;20052;-80
2021/06/10 08:41:44;;;;;;;9.00;6.97;;;24.60;99.90;;;;;;4181677;28;20040;-79
2021/06/10 08:43:46;;;;;;;8.60;7.07;;;24.70;99.90;;;;;;4180396;28;20085;-79
2021/06/10 08:45:58;;;;;;;8.97;8.03;;;24.60;99.90;;;;;;4181034;28;20040;-80
2021/06/10 08:47:59;;;;;;;8.60;7.63;;;24.80;99.90;;;;;;4182373;28;20033;-79
2021/06/10 08:50:01;;;;;;;9.10;7.30;;;24.80;99.90;;;;;;4181316;28;20036;-81
2021/06/10 08:52:07;;;;;;;9.82;7.10;;;24.90;99.90;;;;;;4179876;28;20500;-79
2021/06/10 08:54:07;;;;;;;7.78;6.95;;;24.90;99.90;;;;;;4180248;28;20590;-79
2021/06/10 08:56:09;;;;;;;10.40;6.80;;;24.90;99.90;;;;;;4180973;28;20029;-81
2021/06/10 08:58:09;;;;;;;7.32;6.63;;;25.00;99.90;;;;;;4175112;28;20033;-78
2021/06/10 09:00:10;;;;;;;10.95;7.18;;;25.10;99.90;;;;;;4180969;28;20084;-78
2021/06/10 09:02:13;;;;;;;8.48;6.32;;;25.20;99.90;;;;;;4189889;28;20115;-80
2021/06/10 09:04:14;;;;;;;7.07;6.18;;;25.30;99.90;;;;;;4179777;28;20025;-79
2021/06/10 09:06:17;;;;;;;8.52;6.22;;;25.70;99.90;;;;;;4176966;28;20033;-79
2021/06/10 09:08:20;;;;;;;7.78;6.72;;;25.80;99.90;;;;;;4180563;28;20479;-79
2021/06/10 09:10:27;;;;;;;7.60;6.90;;;25.90;99.90;;;;;;4179695;28;20111;-79
2021/06/10 09:12:28;;;;;;;7.57;6.80;;;25.90;99.90;;;;;;4179773;28;20332;-78
2021/06/10 09:14:29;;;;;;;9.70;6.82;;;25.90;99.90;;;;;;4179700;28;20164;-79
2021/06/10 09:16:36;;;;;;;10.88;7.40;;;25.70;99.90;;;;;;4181299;28;20052;-78
2021/06/10 09:19:16;;;;;;;8.48;6.88;;;25.50;99.90;;;;;;4179564;28;20021;-78
2021/06/10 09:21:38;;;;;;;10.23;7.63;;;25.50;99.90;;;;;;4144059;28;20041;-78
2021/06/10 09:23:39;;;;;;;9.50;6.82;;;25.50;99.90;;;;;;4177473;28;20026;-77
2021/06/10 09:25:41;;;;;;;9.15;8.25;;;25.50;99.90;;;;;;4179528;28;20044;-80
2021/06/10 09:27:55;;;;;;;7.78;6.93;;;25.90;99.90;;;;;;4173484;28;20392;-80
2021/06/10 09:29:57;;;;;;;9.70;7.28;;;26.00;99.90;;;;;;4180310;28;20124;-79
2021/06/10 09:31:57;;;;;;;8.57;7.70;;;26.00;99.90;;;;;;4180178;28;20060;-79
2021/06/10 09:33:59;;;;;;;8.10;7.30;;;26.10;99.90;;;;;;4178259;28;20120;-79
2021/06/10 09:36:03;;;;;;;9.67;8.73;;;26.10;99.90;;;;;;4178479;28;20029;-78
2021/06/10 09:38:07;;;;;;;9.77;8.80;;;26.30;99.90;;;;;;4180473;28;20032;-78
2021/06/10 09:40:15;;;;;;;9.02;8.23;;;26.30;99.90;;;;;;4179232;28;20135;-79
2021/06/10 09:42:15;;;;;;;11.75;10.23;;;26.50;99.90;;;;;;4196017;28;20036;-78
2021/06/10 09:44:43;;;;;;;8.73;7.90;;;26.20;99.90;;;;;;4180433;28;20040;-78
2021/06/10 09:47:02;;;;;;;9.85;8.88;;;26.10;99.90;;;;;;4180373;28;20036;-80
2021/06/10 09:49:05;;;;;;;9.05;8.13;;;26.40;99.90;;;;;;4180796;28;20510;-79
2021/06/10 09:51:21;;;;;;;8.82;8.02;;;26.60;99.90;;;;;;4181266;28;20040;-77
2021/06/10 09:53:23;;;;;;;10.15;8.57;;;26.80;99.90;;;;;;4180461;28;20040;-79
2021/06/10 09:55:43;;;;;;;9.10;7.57;;;26.70;99.90;;;;;;4180276;28;20029;-79
2021/06/10 09:57:51;;;;;;;10.77;9.77;;;26.80;99.90;;;;;;4179323;28;20098;-79
2021/06/10 09:59:54;;;;;;;11.80;9.20;;;26.80;99.90;;;;;;4178934;28;20392;-79
2021/06/10 10:02:22;;;;;;;9.45;8.52;;;26.90;99.90;;;;;;4195594;28;20025;-79
2021/06/10 10:04:23;;;;;;;12.52;8.50;;;27.00;99.90;;;;;;4155436;28;20059;-80
2021/06/10 10:06:29;;;;;;;10.75;9.05;;;27.10;99.90;;;;;;4180625;28;20029;-80
2021/06/10 10:08:31;;;;;;;10.70;8.00;;;26.80;99.90;;;;;;4178901;28;20033;-78
2021/06/10 10:10:32;;;;;;;10.40;8.57;;;26.70;99.90;;;;;;4180640;28;20028;-78
2021/06/10 10:12:43;;;;;;;9.98;8.52;;;26.90;99.90;;;;;;4179967;28;20364;-79
2021/06/10 10:14:44;;;;;;;9.55;8.55;;;27.00;99.90;;;;;;4195106;28;20037;-79
2021/06/10 10:16:45;;;;;;;8.57;7.68;;;27.30;99.90;;;;;;4179405;28;20084;-79
2021/06/10 10:18:48;;;;;;;8.30;7.40;;;27.50;99.90;;;;;;4180165;28;20404;-78
2021/06/10 10:20:50;;;;;;;9.27;7.55;;;27.70;99.90;;;;;;4180198;28;20112;-78
2021/06/10 10:22:54;;;;;;;8.18;7.38;;;27.70;99.90;;;;;;4187716;28;20029;-78
2021/06/10 10:24:54;;;;;;;9.90;8.93;;;28.00;99.90;;;;;;4178050;28;20025;-78
2021/06/10 10:26:56;;;;;;;8.80;7.55;;;28.10;99.90;;;;;;4180805;28;20044;-78
2021/06/10 10:28:58;;;;;;;7.75;7.03;;;;;;;;;;4178948;28;20376;-79
2021/06/10 10:30:59;;;;;;;8.90;7.65;;;28.10;99.90;;;;;;4180146;28;20129;-78
2021/06/10 10:33:21;;;;;;;11.32;7.38;;;28.20;99.90;;;;;;4209151;28;20028;-80